createdAt,value
2022-11-07T00:00:27.990Z,9.06
2022-11-07T00:02:54.791Z,9.16
2022-11-07T00:05:22.373Z,9.28
2022-11-07T00:07:49.143Z,9.34
2022-11-07T00:10:15.905Z,9.36
2022-11-07T00:12:42.634Z,9.28
2022-11-07T00:15:09.667Z,9.21
2022-11-07T00:17:36.334Z,9.20
2022-11-07T00:20:03.136Z,9.31
2022-11-07T00:22:29.896Z,9.45
2022-11-07T00:24:56.665Z,9.59
2022-11-07T00:27:23.411Z,9.66
2022-11-07T00:29:50.137Z,9.63
2022-11-07T00:32:16.803Z,9.70
2022-11-07T00:34:43.523Z,9.65
2022-11-07T00:37:10.194Z,9.75
2022-11-07T00:39:36.894Z,9.74
2022-11-07T00:42:03.768Z,9.80
2022-11-07T00:44:30.416Z,9.67
2022-11-07T00:46:57.148Z,9.55
2022-11-07T00:49:23.822Z,9.59
2022-11-07T00:51:50.500Z,9.68
2022-11-07T00:54:17.297Z,9.78
2022-11-07T00:56:43.972Z,9.76
2022-11-07T00:59:10.698Z,9.67
2022-11-07T01:01:37.727Z,9.67
2022-11-07T01:04:33.525Z,9.59
2022-11-07T01:07:01.877Z,9.72
2022-11-07T01:09:28.618Z,9.81
2022-11-07T01:11:55.315Z,9.66
2022-11-07T01:14:22.953Z,9.62
2022-11-07T01:16:50.582Z,9.47
2022-11-07T01:19:17.906Z,9.51
2022-11-07T01:21:44.607Z,9.67
2022-11-07T01:24:16.325Z,9.64
2022-11-07T01:26:44.419Z,9.56
2022-11-07T01:29:11.205Z,9.39
2022-11-07T01:31:37.905Z,9.46
2022-11-07T01:34:04.753Z,9.28
2022-11-07T01:36:31.451Z,9.43
2022-11-07T01:38:58.496Z,9.54
2022-11-07T01:41:33.098Z,9.79
2022-11-07T01:44:07.858Z,9.85
2022-11-07T01:46:34.596Z,9.85
2022-11-07T01:49:17.660Z,9.75
2022-11-07T01:51:48.471Z,9.76
2022-11-07T01:54:17.492Z,9.59
2022-11-07T01:56:45.009Z,9.64
2022-11-07T01:59:15.538Z,9.47
2022-11-07T02:01:43.028Z,9.33
2022-11-07T02:04:10.922Z,9.57
2022-11-07T02:06:47.074Z,9.64
2022-11-07T02:09:14.273Z,9.63
2022-11-07T02:11:41.360Z,9.55
2022-11-07T02:14:08.358Z,9.48
2022-11-07T02:16:36.225Z,9.73
2022-11-07T02:19:04.656Z,9.68
2022-11-07T02:21:49.944Z,9.56
2022-11-07T02:24:25.609Z,9.36
2022-11-07T02:26:53.559Z,9.41
2022-11-07T02:29:20.379Z,9.58
2022-11-07T02:31:47.071Z,9.58
2022-11-07T02:34:13.933Z,9.50
2022-11-07T02:36:40.668Z,9.68
2022-11-07T02:39:07.616Z,9.69
2022-11-07T02:41:35.205Z,9.83
2022-11-07T02:44:08.507Z,9.66
2022-11-07T02:46:35.554Z,9.74
2022-11-07T02:49:02.568Z,9.90
2022-11-07T02:51:29.970Z,9.89
2022-11-07T02:53:56.674Z,10.05
2022-11-07T02:56:24.032Z,10.04
2022-11-07T02:58:52.630Z,9.71
2022-11-07T03:01:20.061Z,9.80
2022-11-07T03:03:48.999Z,9.91
2022-11-07T03:06:19.072Z,9.99
2022-11-07T03:08:45.814Z,10.05
2022-11-07T03:11:13.885Z,10.20
2022-11-07T03:13:40.727Z,10.27
2022-11-07T03:16:09.116Z,10.25
2022-11-07T03:18:36.241Z,10.06
2022-11-07T03:21:03.821Z,10.07
2022-11-07T03:23:30.871Z,10.17
2022-11-07T03:25:57.787Z,9.91
2022-11-07T03:28:24.960Z,9.85
2022-11-07T03:30:52.031Z,10.03
2022-11-07T03:33:18.733Z,10.15
2022-11-07T03:35:45.431Z,10.15
2022-11-07T03:38:12.212Z,10.31
2022-11-07T03:40:38.893Z,10.32
2022-11-07T03:43:05.557Z,10.33
2022-11-07T03:45:32.258Z,10.37
2022-11-07T03:47:58.957Z,10.39
2022-11-07T03:50:25.692Z,10.09
2022-11-07T03:52:52.381Z,10.14
2022-11-07T03:55:19.162Z,10.10
2022-11-07T03:57:46.074Z,9.98
2022-11-07T04:00:13.752Z,10.01
2022-11-07T04:02:40.716Z,10.10
2022-11-07T04:05:07.995Z,10.20
2022-11-07T04:07:34.793Z,10.01
2022-11-07T04:10:01.458Z,10.16
2022-11-07T04:12:46.745Z,10.25
2022-11-07T04:15:31.985Z,10.28
2022-11-07T04:18:00.683Z,10.31
2022-11-07T04:20:28.439Z,10.34
2022-11-07T04:22:55.091Z,10.34
2022-11-07T04:25:41.787Z,10.49
2022-11-07T04:28:08.544Z,10.49
2022-11-07T04:30:35.260Z,10.34
2022-11-07T04:33:02.500Z,10.08
2022-11-07T04:35:31.451Z,10.01
2022-11-07T04:37:59.336Z,10.19
2022-11-07T04:40:26.343Z,10.27
2022-11-07T04:42:53.602Z,10.21
2022-11-07T04:45:21.680Z,10.42
2022-11-07T04:47:48.705Z,10.39
2022-11-07T04:50:17.226Z,10.44
2022-11-07T04:52:43.981Z,10.44
2022-11-07T04:55:18.009Z,10.48
2022-11-07T04:57:44.709Z,10.33
2022-11-07T05:00:11.900Z,10.35
2022-11-07T05:02:38.633Z,10.53
2022-11-07T05:05:05.873Z,10.49
2022-11-07T05:07:32.584Z,10.35
2022-11-07T05:09:59.237Z,10.28
2022-11-07T05:12:25.911Z,10.38
2022-11-07T05:14:52.578Z,10.39
2022-11-07T05:17:19.368Z,10.45
2022-11-07T05:19:47.883Z,10.40
2022-11-07T05:22:33.387Z,10.32
2022-11-07T05:25:00.440Z,10.35
2022-11-07T05:27:27.174Z,10.32
2022-11-07T05:29:56.883Z,10.23
2022-11-07T05:32:23.727Z,10.30
2022-11-07T05:34:50.385Z,10.41
2022-11-07T05:37:17.057Z,10.33
2022-11-07T05:39:43.734Z,10.33
2022-11-07T05:42:10.488Z,10.29
2022-11-07T05:44:37.498Z,10.18
2022-11-07T05:47:04.210Z,10.13
2022-11-07T05:49:30.898Z,10.27
2022-11-07T05:51:57.888Z,10.30
2022-11-07T05:54:24.930Z,10.22
2022-11-07T05:56:55.693Z,10.27
2022-11-07T05:59:23.677Z,10.29
2022-11-07T06:01:51.480Z,10.32
2022-11-07T06:04:21.587Z,10.34
2022-11-07T06:06:48.319Z,10.58
2022-11-07T06:09:15.223Z,10.55
2022-11-07T06:11:42.132Z,10.57
2022-11-07T06:14:08.891Z,10.49
2022-11-07T06:16:35.913Z,10.37
2022-11-07T06:19:02.886Z,10.37
2022-11-07T06:21:30.387Z,10.37
2022-11-07T06:23:58.061Z,10.32
2022-11-07T06:26:24.756Z,10.58
2022-11-07T06:28:51.450Z,10.49
2022-11-07T06:31:18.147Z,10.54
2022-11-07T06:33:44.835Z,10.51
2022-11-07T06:36:12.615Z,10.52
2022-11-07T06:38:39.880Z,10.64
2022-11-07T06:41:11.206Z,10.63
2022-11-07T06:43:38.347Z,10.53
2022-11-07T06:46:08.707Z,10.49
2022-11-07T06:48:35.428Z,10.43
2022-11-07T06:51:04.205Z,10.58
2022-11-07T06:53:32.182Z,10.59
2022-11-07T06:56:03.674Z,10.57
2022-11-07T06:58:30.412Z,10.53
2022-11-07T07:01:04.485Z,10.55
2022-11-07T07:03:31.285Z,10.46
2022-11-07T07:06:02.809Z,10.62
2022-11-07T07:08:30.047Z,10.71
2022-11-07T07:10:57.087Z,10.57
2022-11-07T07:13:23.760Z,10.65
2022-11-07T07:15:54.972Z,10.65
2022-11-07T07:18:22.201Z,10.70
2022-11-07T07:20:49.691Z,10.76
2022-11-07T07:23:20.565Z,10.75
2022-11-07T07:25:48.017Z,10.46
2022-11-07T07:28:14.765Z,10.51
2022-11-07T07:30:41.446Z,10.75
2022-11-07T07:33:08.128Z,10.73
2022-11-07T07:35:34.828Z,10.65
2022-11-07T07:38:01.503Z,10.63
2022-11-07T07:40:28.620Z,10.58
2022-11-07T07:42:55.438Z,10.78
2022-11-07T07:45:25.238Z,10.85
2022-11-07T07:47:53.170Z,10.71
2022-11-07T07:50:19.957Z,10.84
2022-11-07T07:52:46.618Z,11.00
2022-11-07T07:55:13.451Z,10.90
2022-11-07T07:57:43.248Z,10.99
2022-11-07T08:00:11.498Z,11.10
2022-11-07T08:02:43.970Z,11.20
2022-11-07T08:05:12.801Z,11.10
2022-11-07T08:07:50.158Z,11.25
2022-11-07T08:10:40.868Z,11.26
2022-11-07T08:13:05.903Z,11.45
2022-11-07T08:15:32.588Z,11.45
2022-11-07T08:18:04.437Z,11.71
2022-11-07T08:20:33.967Z,11.64
2022-11-07T08:23:02.074Z,11.69
2022-11-07T08:25:29.107Z,11.73
2022-11-07T08:27:55.889Z,11.80
2022-11-07T08:30:22.696Z,11.85
2022-11-07T08:32:49.387Z,12.38
2022-11-07T08:35:16.192Z,12.49
2022-11-07T08:37:42.823Z,12.77
2022-11-07T08:40:09.908Z,13.07
2022-11-07T08:42:36.580Z,13.12
2022-11-07T08:45:03.510Z,13.03
2022-11-07T08:47:30.238Z,12.89
2022-11-07T08:49:56.944Z,12.89
2022-11-07T08:52:23.627Z,13.04
2022-11-07T08:54:50.279Z,13.15
2022-11-07T08:57:17.119Z,13.20
2022-11-07T08:59:43.986Z,13.48
2022-11-07T09:05:00.675Z,13.88
2022-11-07T09:07:27.405Z,14.04
2022-11-07T09:09:54.136Z,14.59
2022-11-07T09:12:20.817Z,14.90
2022-11-07T09:14:47.492Z,15.05
2022-11-07T09:17:14.190Z,15.28
2022-11-07T09:19:40.879Z,15.73
2022-11-07T09:22:07.678Z,16.47
2022-11-07T09:24:34.528Z,16.96
2022-11-07T09:27:01.198Z,17.12
2022-11-07T09:29:28.100Z,17.25
2022-11-07T09:31:54.959Z,17.48
2022-11-07T09:34:21.634Z,17.87
2022-11-07T09:36:48.707Z,18.09
2022-11-07T09:39:15.377Z,18.33
2022-11-07T09:42:07.259Z,18.39
2022-11-07T09:44:37.458Z,18.65
2022-11-07T09:47:11.479Z,18.58
2022-11-07T09:49:48.619Z,18.29
2022-11-07T09:52:24.933Z,18.29
2022-11-07T09:54:59.841Z,18.62
2022-11-07T09:57:27.701Z,18.50
2022-11-07T09:59:55.440Z,18.60
2022-11-07T10:02:26.073Z,18.87
2022-11-07T10:04:57.577Z,18.95
2022-11-07T10:08:05.846Z,18.99
2022-11-07T10:10:51.205Z,18.95
2022-11-07T10:13:23.953Z,18.83
2022-11-07T10:16:18.703Z,18.96
2022-11-07T10:18:52.985Z,19.18
2022-11-07T10:24:31.105Z,19.09
2022-11-07T10:26:58.560Z,19.02
2022-11-07T10:29:29.368Z,18.86
2022-11-07T10:32:03.312Z,18.95
2022-11-07T10:34:36.467Z,18.97
2022-11-07T10:37:04.272Z,18.72
2022-11-07T10:39:32.241Z,18.77
2022-11-07T10:42:15.460Z,18.74
2022-11-07T10:44:43.239Z,18.28
2022-11-07T10:47:21.293Z,18.00
2022-11-07T10:49:55.460Z,18.06
2022-11-07T10:52:22.797Z,18.29
2022-11-07T10:54:49.524Z,18.08
2022-11-07T10:57:19.093Z,17.83
2022-11-07T10:59:57.456Z,17.56
2022-11-07T11:02:53.930Z,17.61
2022-11-07T11:05:42.278Z,17.61
2022-11-07T11:08:18.797Z,17.54
2022-11-07T11:10:46.573Z,16.97
2022-11-07T11:13:33.848Z,16.90
2022-11-07T11:16:21.332Z,17.01
2022-11-07T11:18:52.387Z,16.74
2022-11-07T11:21:19.212Z,16.83
2022-11-07T11:23:46.556Z,16.76
2022-11-07T11:26:48.813Z,16.71
2022-11-07T11:29:41.418Z,16.68
2022-11-07T11:32:15.294Z,16.63
2022-11-07T11:35:08.710Z,16.59
2022-11-07T11:37:38.769Z,16.46
2022-11-07T11:40:13.640Z,16.51
2022-11-07T11:42:46.693Z,16.46
2022-11-07T11:45:27.019Z,16.46
2022-11-07T11:47:59.516Z,16.37
2022-11-07T11:50:34.763Z,16.32
2022-11-07T11:53:01.709Z,16.42
2022-11-07T11:55:37.069Z,16.58
2022-11-07T11:58:03.706Z,16.59
2022-11-07T12:00:32.509Z,16.58
2022-11-07T12:03:06.828Z,16.37
2022-11-07T12:05:56.561Z,16.44
2022-11-07T12:08:26.262Z,16.44
2022-11-07T12:11:00.105Z,16.50
2022-11-07T12:13:32.774Z,16.52
2022-11-07T12:16:38.629Z,16.47
2022-11-07T12:19:29.654Z,16.38
2022-11-07T12:22:06.432Z,16.38
2022-11-07T12:24:45.273Z,16.34
2022-11-07T12:27:27.454Z,16.17
2022-11-07T12:30:00.295Z,16.13
2022-11-07T12:32:39.440Z,16.03
2022-11-07T12:35:27.861Z,15.94
2022-11-07T12:38:25.221Z,15.82
2022-11-07T12:41:07.420Z,15.87
2022-11-07T12:44:01.603Z,15.88
2022-11-07T12:46:54.311Z,15.98
2022-11-07T12:49:30.778Z,16.14
2022-11-07T12:52:01.024Z,16.18
2022-11-07T12:55:03.112Z,16.17
2022-11-07T12:57:34.267Z,16.05
2022-11-07T13:00:12.117Z,16.00
2022-11-07T13:03:00.647Z,16.01
2022-11-07T13:05:38.831Z,16.06
2022-11-07T13:08:27.003Z,16.06
2022-11-07T13:10:59.864Z,15.92
2022-11-07T13:13:46.088Z,15.75
2022-11-07T13:16:27.432Z,15.69
2022-11-07T13:18:54.394Z,15.75
2022-11-07T13:21:21.480Z,15.65
2022-11-07T13:23:48.772Z,15.55
2022-11-07T13:26:45.061Z,15.50
2022-11-07T13:29:04.715Z,15.54
2022-11-07T13:31:34.157Z,15.47
2022-11-07T13:34:19.800Z,15.32
2022-11-07T13:36:47.946Z,15.34
2022-11-07T13:39:14.888Z,15.48
2022-11-07T13:41:44.657Z,15.48
2022-11-07T13:44:20.232Z,15.54
2022-11-07T13:46:49.972Z,15.54
2022-11-07T13:49:16.772Z,15.49
2022-11-07T13:51:49.795Z,15.45
2022-11-07T13:54:38.461Z,15.43
2022-11-07T13:57:27.465Z,15.48
2022-11-07T13:59:58.500Z,15.50
2022-11-07T14:02:27.753Z,15.51
2022-11-07T14:05:15.289Z,15.56
2022-11-07T14:07:46.937Z,15.65
2022-11-07T14:10:26.258Z,15.50
2022-11-07T14:13:13.800Z,15.56
2022-11-07T14:15:47.729Z,15.54
2022-11-07T14:18:16.338Z,15.54
2022-11-07T14:20:54.763Z,15.51
2022-11-07T14:23:23.566Z,15.35
2022-11-07T14:25:58.292Z,15.32
2022-11-07T14:28:25.439Z,15.17
2022-11-07T14:30:53.144Z,15.27
2022-11-07T14:33:22.315Z,15.28
2022-11-07T14:35:51.358Z,15.24
2022-11-07T14:38:22.630Z,15.34
2022-11-07T14:40:50.693Z,15.35
2022-11-07T14:43:19.605Z,15.44
2022-11-07T14:46:11.393Z,15.36
2022-11-07T14:48:34.743Z,15.34
2022-11-07T14:51:02.447Z,15.16
2022-11-07T14:53:39.969Z,15.25
2022-11-07T14:56:08.691Z,15.25
2022-11-07T14:58:35.606Z,15.24
2022-11-07T15:01:08.616Z,15.30
2022-11-07T15:03:51.161Z,15.29
2022-11-07T15:06:23.893Z,15.35
2022-11-07T15:09:05.972Z,15.26
2022-11-07T15:11:38.186Z,15.36
2022-11-07T15:14:07.227Z,15.21
2022-11-07T15:16:39.172Z,15.34
2022-11-07T15:19:08.913Z,15.16
2022-11-07T15:21:50.522Z,15.09
2022-11-07T15:24:44.227Z,15.16
2022-11-07T15:27:13.872Z,15.24
2022-11-07T15:29:59.124Z,15.20
2022-11-07T15:38:17.953Z,15.00
2022-11-07T15:40:45.287Z,15.08
2022-11-07T15:43:12.074Z,15.22
2022-11-07T15:45:40.286Z,15.05
2022-11-07T15:48:08.136Z,15.13
2022-11-07T15:50:41.365Z,14.99
2022-11-07T15:53:15.007Z,15.00
2022-11-07T15:55:41.882Z,14.91
2022-11-07T15:58:09.808Z,14.89
2022-11-07T16:00:36.503Z,14.83
2022-11-07T16:03:03.525Z,14.73
2022-11-07T16:05:30.515Z,14.70
2022-11-07T16:08:07.527Z,14.69
2022-11-07T16:10:34.446Z,14.77
2022-11-07T16:13:04.971Z,14.82
2022-11-07T16:15:33.599Z,14.98
2022-11-07T16:18:00.407Z,14.97
2022-11-07T16:20:27.371Z,14.94
2022-11-07T16:22:55.186Z,14.92
2022-11-07T16:25:24.300Z,14.90
2022-11-07T16:27:53.428Z,14.92
2022-11-07T16:30:21.048Z,14.84
2022-11-07T16:32:48.515Z,14.71
2022-11-07T16:35:15.693Z,14.83
2022-11-07T16:37:42.471Z,14.71
2022-11-07T16:40:14.301Z,14.66
2022-11-07T16:42:41.262Z,14.68
2022-11-07T16:45:08.501Z,14.78
2022-11-07T16:47:38.075Z,14.61
2022-11-07T16:50:05.801Z,14.64
2022-11-07T16:52:32.813Z,14.67
2022-11-07T16:55:01.488Z,14.65
2022-11-07T16:57:28.440Z,14.62
2022-11-07T16:59:55.268Z,14.59
2022-11-07T17:02:24.665Z,14.41
2022-11-07T17:04:54.049Z,14.40
2022-11-07T17:07:22.836Z,14.42
2022-11-07T17:09:50.171Z,14.44
2022-11-07T17:12:19.221Z,14.34
2022-11-07T17:14:46.383Z,14.26
2022-11-07T17:17:13.949Z,14.18
2022-11-07T17:19:40.776Z,14.12
2022-11-07T17:22:07.776Z,14.17
2022-11-07T17:24:34.421Z,14.31
2022-11-07T17:27:01.206Z,14.39
2022-11-07T17:29:28.055Z,14.31
2022-11-07T17:31:54.844Z,14.41
2022-11-07T17:34:21.788Z,14.47
2022-11-07T17:36:50.952Z,14.45
2022-11-07T17:39:19.876Z,14.49
2022-11-07T17:41:48.599Z,14.46
2022-11-07T17:44:16.280Z,14.54
2022-11-07T17:46:45.308Z,14.54
2022-11-07T17:49:15.033Z,14.57
2022-11-07T17:51:42.246Z,14.49
2022-11-07T17:54:15.043Z,14.43
2022-11-07T17:56:42.668Z,14.36
2022-11-07T17:59:14.555Z,14.49
2022-11-07T18:01:41.739Z,14.32
2022-11-07T18:04:13.458Z,14.30
2022-11-07T18:06:42.652Z,14.42
2022-11-07T18:09:14.629Z,14.56
2022-11-07T18:11:41.668Z,14.60
2022-11-07T18:14:10.371Z,14.52
2022-11-07T18:16:37.501Z,14.46
2022-11-07T18:19:05.207Z,14.58
2022-11-07T18:21:32.613Z,14.56
2022-11-07T18:23:59.290Z,14.51
2022-11-07T18:26:32.080Z,14.55
2022-11-07T18:29:04.720Z,14.49
2022-11-07T18:31:31.725Z,14.50
2022-11-07T18:34:00.186Z,14.53
2022-11-07T18:36:27.488Z,14.56
2022-11-07T18:38:54.199Z,14.58
2022-11-07T18:41:22.785Z,14.43
2022-11-07T18:43:50.138Z,14.22
2022-11-07T18:46:19.432Z,14.18
2022-11-07T18:48:46.601Z,14.24
2022-11-07T18:51:23.230Z,14.27
2022-11-07T18:53:51.543Z,14.32
2022-11-07T18:56:18.935Z,14.38
2022-11-07T18:58:46.198Z,14.29
2022-11-07T19:01:23.659Z,14.40
2022-11-07T19:03:52.098Z,14.51
2022-11-07T19:06:20.939Z,14.52
2022-11-07T19:08:49.243Z,14.44
2022-11-07T19:11:21.792Z,14.50
2022-11-07T19:13:48.546Z,14.39
2022-11-07T19:16:17.072Z,14.33
2022-11-07T19:18:49.723Z,14.36
2022-11-07T19:21:19.880Z,14.36
2022-11-07T19:23:47.169Z,14.40
2022-11-07T19:26:14.219Z,14.37
2022-11-07T19:28:41.023Z,14.38
2022-11-07T19:31:10.909Z,14.37
2022-11-07T19:33:37.619Z,14.26
2022-11-07T19:36:16.570Z,14.14
2022-11-07T19:38:44.311Z,14.27
2022-11-07T19:41:12.364Z,14.18
2022-11-07T19:43:39.490Z,14.16
2022-11-07T19:46:11.793Z,14.09
2022-11-07T19:48:38.629Z,14.20
2022-11-07T19:51:10.926Z,14.17
2022-11-07T19:53:37.680Z,14.04
2022-11-07T19:56:09.409Z,13.88
2022-11-07T19:58:37.034Z,14.08
2022-11-07T20:01:13.227Z,14.00
2022-11-07T20:03:43.550Z,14.08
2022-11-07T20:06:11.182Z,14.04
2022-11-07T20:08:38.613Z,14.02
2022-11-07T20:11:05.556Z,14.21
2022-11-07T20:13:32.217Z,14.31
2022-11-07T20:15:58.915Z,14.34
2022-11-07T20:18:25.667Z,14.35
2022-11-07T20:21:00.089Z,14.23
2022-11-07T20:23:26.772Z,14.25
2022-11-07T20:25:53.448Z,14.29
2022-11-07T20:28:20.315Z,14.24
2022-11-07T20:30:47.189Z,14.26
2022-11-07T20:33:14.319Z,14.34
2022-11-07T20:35:41.217Z,14.30
2022-11-07T20:38:09.994Z,14.29
2022-11-07T20:40:37.450Z,14.19
2022-11-07T20:43:05.445Z,14.30
2022-11-07T20:45:32.349Z,14.37
2022-11-07T20:47:59.098Z,14.39
2022-11-07T20:50:25.927Z,14.33
2022-11-07T20:52:57.324Z,14.40
2022-11-07T20:55:25.984Z,14.39
2022-11-07T20:57:52.876Z,14.33
2022-11-07T21:00:19.853Z,14.33
2022-11-07T21:02:47.694Z,14.32
2022-11-07T21:05:18.437Z,14.41
2022-11-07T21:07:45.522Z,14.38
2022-11-07T21:10:12.541Z,14.45
2022-11-07T21:12:39.508Z,14.38
2022-11-07T21:15:07.093Z,14.32
2022-11-07T21:17:33.916Z,14.33
2022-11-07T21:20:00.695Z,14.21
2022-11-07T21:22:29.589Z,14.32
2022-11-07T21:24:56.886Z,14.38
2022-11-07T21:27:23.740Z,14.40
2022-11-07T21:29:51.695Z,14.12
2022-11-07T21:32:18.390Z,14.18
2022-11-07T21:34:46.385Z,14.13
2022-11-07T21:37:13.043Z,13.86
2022-11-07T21:39:39.855Z,13.88
2022-11-07T21:42:06.532Z,13.82
2022-11-07T21:44:33.328Z,13.82
2022-11-07T21:47:00.275Z,13.82
2022-11-07T21:49:27.277Z,13.89
2022-11-07T21:51:54.162Z,14.03
2022-11-07T21:54:20.880Z,13.99
2022-11-07T21:56:47.707Z,14.16
2022-11-07T21:59:14.407Z,13.81
2022-11-07T22:01:41.428Z,13.86
2022-11-07T22:04:11.812Z,13.99
2022-11-07T22:06:41.788Z,14.16
2022-11-07T22:09:09.590Z,14.12
2022-11-07T22:11:36.359Z,14.24
2022-11-07T22:14:03.655Z,14.26
2022-11-07T22:16:30.584Z,14.21
2022-11-07T22:18:58.953Z,14.25
2022-11-07T22:21:26.043Z,14.29
2022-11-07T22:23:52.814Z,14.33
2022-11-07T22:26:21.669Z,14.10
2022-11-07T22:28:49.067Z,14.08
2022-11-07T22:31:20.875Z,13.97
2022-11-07T22:33:47.870Z,14.01
2022-11-07T22:36:14.877Z,14.09
2022-11-07T22:38:42.340Z,14.07
2022-11-07T22:41:11.764Z,14.07
2022-11-07T22:43:38.649Z,13.89
2022-11-07T22:46:08.156Z,13.85
2022-11-07T22:48:35.201Z,13.92
2022-11-07T22:51:06.313Z,13.92
2022-11-07T22:53:33.697Z,13.94
2022-11-07T22:56:20.001Z,13.97
2022-11-07T22:58:47.620Z,13.95
2022-11-07T23:01:17.381Z,13.93
2022-11-07T23:03:44.207Z,13.83
2022-11-07T23:06:11.179Z,13.73
2022-11-07T23:08:38.580Z,13.70
2022-11-07T23:11:44.068Z,13.70
2022-11-07T23:14:01.811Z,13.67
2022-11-07T23:16:34.112Z,13.62
2022-11-07T23:19:03.240Z,13.68
2022-11-07T23:21:30.308Z,13.70
2022-11-07T23:23:58.399Z,13.66
2022-11-07T23:26:26.036Z,13.52
2022-11-07T23:28:53.367Z,13.61
2022-11-07T23:31:20.317Z,13.63
2022-11-07T23:33:47.027Z,13.58
2022-11-07T23:36:15.640Z,13.56
2022-11-07T23:38:43.422Z,13.54
2022-11-07T23:41:12.628Z,13.62
2022-11-07T23:43:39.409Z,13.50
2022-11-07T23:46:24.749Z,13.40
2022-11-07T23:49:14.434Z,13.37
2022-11-07T23:51:42.143Z,13.48
2022-11-07T23:54:27.455Z,13.48
2022-11-07T23:56:54.228Z,13.49
2022-11-07T23:59:39.598Z,13.51
